Terminal Aerodrome Forecast
Issued by NWS

Home | Current Version | Previous Version | Text Only | Print | Product List | Glossary On
Versions: 1 2 3 4 5 6 7 8 9 10 11 12 13
000
FTUS46 KLOX 031700
TAFPMD
TAF
KPMD 031726Z 0318/0418 23014KT P6SM SKC
     FM031900 23018G25KT P6SM SKC
     FM032200 23022G32KT P6SM SKC
     FM040200 24016G24KT P6SM SKC
     FM040500 23012KT P6SM SKC=

USA.gov is the U.S. government's official web portal to all federal, state and local government web resources and services.